createdAt,value
2022-08-17T00:02:26.756Z,22.82
2022-08-17T00:05:36.054Z,22.79
2022-08-17T00:08:44.603Z,22.79
2022-08-17T00:12:41.471Z,22.76
2022-08-17T00:15:18.282Z,22.74
2022-08-17T00:19:02.079Z,22.78
2022-08-17T00:22:28.738Z,22.75
2022-08-17T00:25:20.738Z,22.71
2022-08-17T00:28:26.280Z,22.72
2022-08-17T00:31:38.450Z,22.69
2022-08-17T00:34:43.654Z,22.70
2022-08-17T00:37:49.020Z,22.65
2022-08-17T00:40:59.195Z,22.66
2022-08-17T00:44:06.581Z,22.58
2022-08-17T00:47:15.149Z,22.60
2022-08-17T00:50:21.293Z,22.60
2022-08-17T00:53:27.248Z,22.50
2022-08-17T00:56:37.992Z,22.51
2022-08-17T01:00:01.599Z,22.48
2022-08-17T01:03:21.933Z,22.38
2022-08-17T01:06:28.325Z,22.43
2022-08-17T01:09:34.709Z,22.40
2022-08-17T01:12:40.100Z,22.45
2022-08-17T01:15:49.922Z,22.44
2022-08-17T01:19:06.738Z,22.45
2022-08-17T01:22:24.906Z,22.42
2022-08-17T01:25:30.873Z,22.44
2022-08-17T01:28:53.414Z,22.40
2022-08-17T01:32:05.687Z,22.38
2022-08-17T01:35:11.820Z,22.40
2022-08-17T01:38:19.760Z,22.35
2022-08-17T01:41:32.409Z,22.29
2022-08-17T01:44:38.156Z,22.23
2022-08-17T01:47:44.010Z,22.31
2022-08-17T01:50:52.426Z,22.36
2022-08-17T01:54:05.409Z,22.29
2022-08-17T01:57:11.819Z,22.34
2022-08-17T02:00:18.353Z,22.30
2022-08-17T02:03:25.314Z,22.31
2022-08-17T02:06:44.846Z,22.27
2022-08-17T02:09:52.818Z,22.27
2022-08-17T02:12:58.311Z,22.22
2022-08-17T02:16:04.001Z,22.26
2022-08-17T02:19:12.195Z,22.29
2022-08-17T02:22:18.292Z,22.21
2022-08-17T02:25:24.735Z,22.28
2022-08-17T02:28:30.855Z,22.25
2022-08-17T02:31:36.642Z,22.20
2022-08-17T02:34:41.719Z,22.07
2022-08-17T02:37:46.790Z,22.09
2022-08-17T02:40:58.751Z,22.10
2022-08-17T02:44:06.174Z,21.93
2022-08-17T02:47:13.742Z,22.06
2022-08-17T02:50:22.200Z,21.97
2022-08-17T02:53:27.689Z,21.91
2022-08-17T02:56:42.181Z,21.92
2022-08-17T02:59:49.126Z,21.98
2022-08-17T03:02:54.707Z,22.08
2022-08-17T03:05:59.922Z,21.97
2022-08-17T03:09:05.622Z,21.96
2022-08-17T03:12:14.997Z,22.11
2022-08-17T03:15:24.386Z,22.22
2022-08-17T03:18:29.911Z,22.24
2022-08-17T03:21:35.079Z,22.23
2022-08-17T03:24:40.073Z,22.05
2022-08-17T03:27:48.239Z,22.06
2022-08-17T03:30:56.894Z,22.02
2022-08-17T03:34:02.180Z,21.80
2022-08-17T03:37:07.422Z,22.03
2022-08-17T03:40:15.185Z,22.06
2022-08-17T03:43:41.441Z,22.15
2022-08-17T03:47:04.136Z,22.07
2022-08-17T03:50:33.829Z,22.13
2022-08-17T03:54:06.799Z,22.10
2022-08-17T03:57:13.400Z,22.15
2022-08-17T04:00:20.264Z,22.13
2022-08-17T04:03:25.401Z,22.15
2022-08-17T04:06:30.785Z,22.15
2022-08-17T04:09:36.588Z,22.22
2022-08-17T04:12:48.563Z,22.29
2022-08-17T04:15:55.177Z,22.33
2022-08-17T04:19:00.764Z,22.31
2022-08-17T04:22:06.428Z,22.27
2022-08-17T04:25:19.518Z,22.13
2022-08-17T04:28:34.834Z,22.12
2022-08-17T04:31:41.327Z,22.18
2022-08-17T04:34:46.956Z,22.18
2022-08-17T04:37:52.370Z,22.19
2022-08-17T04:41:15.903Z,22.08
2022-08-17T04:44:30.414Z,22.17
2022-08-17T04:47:44.626Z,22.28
2022-08-17T04:50:51.750Z,22.35
2022-08-17T04:54:00.446Z,22.43
2022-08-17T04:57:06.167Z,22.43
2022-08-17T05:00:13.316Z,22.46
2022-08-17T05:03:20.287Z,22.33
2022-08-17T05:06:25.888Z,22.41
2022-08-17T05:09:31.310Z,22.39
2022-08-17T05:12:36.863Z,22.48
2022-08-17T05:15:45.063Z,22.49
2022-08-17T05:18:54.367Z,22.54
2022-08-17T05:21:59.434Z,22.29
2022-08-17T05:25:05.039Z,22.43
2022-08-17T05:28:12.094Z,22.55
2022-08-17T05:31:17.387Z,22.52
2022-08-17T05:34:23.742Z,22.61
2022-08-17T05:37:29.257Z,22.63
2022-08-17T05:40:34.507Z,22.62
2022-08-17T05:43:42.001Z,22.66
2022-08-17T05:46:51.587Z,22.50
2022-08-17T05:49:58.594Z,22.67
2022-08-17T05:53:11.119Z,22.68
2022-08-17T05:56:30.264Z,22.57
2022-08-17T05:59:45.960Z,22.61
2022-08-17T06:03:16.978Z,22.73
2022-08-17T06:06:41.333Z,22.71
2022-08-17T06:09:53.814Z,22.73
2022-08-17T06:13:10.595Z,22.70
2022-08-17T06:16:28.210Z,22.66
2022-08-17T06:19:42.154Z,22.80
2022-08-17T06:22:53.306Z,22.86
2022-08-17T06:26:05.306Z,22.88
2022-08-17T06:29:28.972Z,23.00
2022-08-17T06:32:35.927Z,23.12
2022-08-17T06:35:46.107Z,23.07
2022-08-17T06:39:01.058Z,22.98
2022-08-17T06:43:02.269Z,23.11
2022-08-17T06:45:49.550Z,23.07
2022-08-17T06:49:11.639Z,23.17
2022-08-17T06:52:46.296Z,23.33
2022-08-17T06:55:57.239Z,23.40
2022-08-17T06:59:03.643Z,23.32
2022-08-17T07:02:11.288Z,23.29
2022-08-17T07:05:19.092Z,23.32
2022-08-17T07:08:35.088Z,23.50
2022-08-17T07:11:50.742Z,23.76
2022-08-17T07:15:05.522Z,23.61
2022-08-17T07:18:15.547Z,23.76
2022-08-17T07:21:38.536Z,23.92
2022-08-17T07:24:52.811Z,24.02
2022-08-17T07:28:02.545Z,24.12
2022-08-17T07:31:14.348Z,24.14
2022-08-17T07:34:19.843Z,24.29
2022-08-17T07:37:25.027Z,24.28
2022-08-17T07:40:34.435Z,24.29
2022-08-17T07:43:49.959Z,24.32
2022-08-17T07:47:13.289Z,24.34
2022-08-17T07:50:27.939Z,24.53
2022-08-17T07:53:33.091Z,24.63
2022-08-17T07:56:43.737Z,24.68
2022-08-17T08:00:16.948Z,24.71
2022-08-17T08:03:27.255Z,24.75
2022-08-17T08:06:37.948Z,24.81
2022-08-17T08:09:46.933Z,24.86
2022-08-17T08:13:07.342Z,24.93
2022-08-17T08:16:27.261Z,24.96
2022-08-17T08:19:33.104Z,25.06
2022-08-17T08:22:47.862Z,25.08
2022-08-17T08:26:05.236Z,25.12
2022-08-17T08:29:22.489Z,25.19
2022-08-17T08:32:51.322Z,25.31
2022-08-17T08:36:03.489Z,25.31
2022-08-17T08:39:17.151Z,25.27
2022-08-17T08:42:30.014Z,25.28
2022-08-17T08:45:45.796Z,25.31
2022-08-17T08:49:59.536Z,25.32
2022-08-17T08:53:23.598Z,25.32
2022-08-17T08:56:36.177Z,25.35
2022-08-17T08:59:57.911Z,25.41
2022-08-17T09:03:52.266Z,25.63
2022-08-17T09:07:11.181Z,25.71
2022-08-17T09:10:26.549Z,25.77
2022-08-17T09:13:43.871Z,25.74
2022-08-17T09:16:57.849Z,25.72
2022-08-17T09:20:06.573Z,25.72
2022-08-17T09:23:20.923Z,25.83
2022-08-17T09:26:32.872Z,25.86
2022-08-17T09:29:43.985Z,25.87
2022-08-17T09:32:58.809Z,25.94
2022-08-17T09:36:10.063Z,25.99
2022-08-17T09:39:23.814Z,26.06
2022-08-17T09:42:36.480Z,26.19
2022-08-17T09:45:49.459Z,26.30
2022-08-17T09:49:02.288Z,26.45
2022-08-17T09:52:12.710Z,26.39
2022-08-17T09:55:19.466Z,26.44
2022-08-17T09:58:31.763Z,26.62
2022-08-17T10:01:40.221Z,26.73
2022-08-17T10:04:52.815Z,26.76
2022-08-17T10:08:08.697Z,26.75
2022-08-17T10:11:48.407Z,26.72
2022-08-17T10:15:18.929Z,26.72
2022-08-17T10:18:43.381Z,26.72
2022-08-17T10:22:19.326Z,26.73
2022-08-17T10:25:56.537Z,26.81
2022-08-17T10:29:07.883Z,26.72
2022-08-17T10:32:32.352Z,26.68
2022-08-17T10:35:45.663Z,26.64
2022-08-17T10:39:04.007Z,26.58
2022-08-17T10:42:30.113Z,26.64
2022-08-17T10:46:09.246Z,26.64
2022-08-17T10:49:29.441Z,26.67
2022-08-17T10:52:50.110Z,26.74
2022-08-17T10:56:42.277Z,26.79
2022-08-17T10:59:53.195Z,26.76
2022-08-17T11:03:00.761Z,26.74
2022-08-17T11:06:17.519Z,26.75
2022-08-17T11:09:33.852Z,26.91
2022-08-17T11:12:45.056Z,26.98
2022-08-17T11:16:04.850Z,27.02
2022-08-17T11:20:05.605Z,26.92
2022-08-17T11:23:54.941Z,27.03
2022-08-17T11:27:12.280Z,27.13
2022-08-17T11:30:44.843Z,27.29
2022-08-17T11:33:59.778Z,27.45
2022-08-17T11:37:47.759Z,27.55
2022-08-17T11:41:11.294Z,27.28
2022-08-17T11:44:31.888Z,27.37
2022-08-17T11:48:26.161Z,27.51
2022-08-17T11:51:43.105Z,27.70
2022-08-17T11:54:50.974Z,27.69
2022-08-17T11:58:01.790Z,27.62
2022-08-17T12:01:09.873Z,27.72
2022-08-17T12:04:27.717Z,27.87
2022-08-17T12:07:34.377Z,27.95
2022-08-17T12:10:58.218Z,27.83
2022-08-17T12:14:03.420Z,27.86
2022-08-17T12:17:11.322Z,27.80
2022-08-17T12:20:24.227Z,27.97
2022-08-17T12:23:40.499Z,27.83
2022-08-17T12:26:57.339Z,27.85
2022-08-17T12:30:07.121Z,27.99
2022-08-17T12:33:25.594Z,28.00
2022-08-17T12:36:34.841Z,27.94
2022-08-17T12:39:40.643Z,28.04
2022-08-17T12:42:57.328Z,28.11
2022-08-17T12:46:13.014Z,28.30
2022-08-17T12:49:34.331Z,28.31
2022-08-17T12:52:42.329Z,28.37
2022-08-17T12:55:47.980Z,28.33
2022-08-17T12:58:55.621Z,28.50
2022-08-17T13:02:02.316Z,28.48
2022-08-17T13:05:14.941Z,28.36
2022-08-17T13:08:35.302Z,28.26
2022-08-17T13:11:49.927Z,28.12
2022-08-17T13:14:57.491Z,28.14
2022-08-17T13:18:08.890Z,28.05
2022-08-17T13:21:26.773Z,27.96
2022-08-17T13:24:38.065Z,27.95
2022-08-17T13:27:44.440Z,27.87
2022-08-17T13:30:50.884Z,27.89
2022-08-17T13:34:19.040Z,27.84
2022-08-17T13:37:32.708Z,27.86
2022-08-17T13:40:43.280Z,28.05
2022-08-17T13:43:49.622Z,28.21
2022-08-17T13:46:57.431Z,28.37
2022-08-17T13:50:02.790Z,28.37
2022-08-17T13:53:22.384Z,28.22
2022-08-17T13:56:39.517Z,28.17
2022-08-17T13:59:55.030Z,28.08
2022-08-17T14:03:05.426Z,28.06
2022-08-17T14:06:10.431Z,28.12
2022-08-17T14:09:17.047Z,28.29
2022-08-17T14:12:29.583Z,28.25
2022-08-17T14:15:56.364Z,28.30
2022-08-17T14:19:02.555Z,28.28
2022-08-17T14:22:20.763Z,28.28
2022-08-17T14:25:29.448Z,28.36
2022-08-17T14:28:36.433Z,28.30
2022-08-17T14:31:42.425Z,28.28
2022-08-17T14:34:57.176Z,28.19
2022-08-17T14:38:03.095Z,28.23
2022-08-17T14:41:08.275Z,28.19
2022-08-17T14:44:13.523Z,28.29
2022-08-17T14:47:18.940Z,28.24
2022-08-17T14:50:25.770Z,28.24
2022-08-17T14:53:32.343Z,28.16
2022-08-17T14:56:38.357Z,28.01
2022-08-17T14:59:43.449Z,27.92
2022-08-17T15:02:53.642Z,28.04
2022-08-17T15:06:00.478Z,27.97
2022-08-17T15:09:05.686Z,27.99
2022-08-17T15:12:24.313Z,27.80
2022-08-17T15:15:35.280Z,27.83
2022-08-17T15:18:41.472Z,27.72
2022-08-17T15:21:47.956Z,27.74
2022-08-17T15:24:52.987Z,27.66
2022-08-17T15:27:58.842Z,27.70
2022-08-17T15:31:05.727Z,27.66
2022-08-17T15:34:13.701Z,27.57
2022-08-17T15:37:20.071Z,27.68
2022-08-17T15:40:25.357Z,27.67
2022-08-17T15:43:33.459Z,27.67
2022-08-17T15:46:39.291Z,27.55
2022-08-17T15:49:46.381Z,27.69
2022-08-17T15:52:59.294Z,27.61
2022-08-17T15:56:05.340Z,27.62
2022-08-17T15:59:11.272Z,27.66
2022-08-17T16:03:13.893Z,27.70
2022-08-17T16:05:46.299Z,27.60
2022-08-17T16:08:54.334Z,27.50
2022-08-17T16:12:00.149Z,27.39
2022-08-17T16:15:08.251Z,27.43
2022-08-17T16:18:14.007Z,27.42
2022-08-17T16:21:39.331Z,27.37
2022-08-17T16:24:57.410Z,27.38
2022-08-17T16:28:02.706Z,27.35
2022-08-17T16:31:08.783Z,27.26
2022-08-17T16:34:18.024Z,27.07
2022-08-17T16:37:23.908Z,27.17
2022-08-17T16:40:35.818Z,27.03
2022-08-17T16:43:41.760Z,27.11
2022-08-17T16:46:48.794Z,26.92
2022-08-17T16:49:54.370Z,26.94
2022-08-17T16:53:09.197Z,26.84
2022-08-17T16:56:19.207Z,26.77
2022-08-17T16:59:31.226Z,26.61
2022-08-17T17:02:47.794Z,26.54
2022-08-17T17:06:06.386Z,26.45
2022-08-17T17:09:16.398Z,26.40
2022-08-17T17:12:34.890Z,26.33
2022-08-17T17:15:56.075Z,26.35
2022-08-17T17:19:11.200Z,26.30
2022-08-17T17:22:19.518Z,26.24
2022-08-17T17:25:29.799Z,26.07
2022-08-17T17:28:57.304Z,26.24
2022-08-17T17:32:17.323Z,25.91
2022-08-17T17:35:27.556Z,25.94
2022-08-17T17:38:39.304Z,25.94
2022-08-17T17:41:48.949Z,25.87
2022-08-17T17:45:05.050Z,25.88
2022-08-17T17:48:12.399Z,25.86
2022-08-17T17:52:09.075Z,25.69
2022-08-17T17:55:05.575Z,25.62
2022-08-17T17:58:27.595Z,25.56
2022-08-17T18:01:46.169Z,25.41
2022-08-17T18:05:01.992Z,25.31
2022-08-17T18:08:34.689Z,25.40
2022-08-17T18:12:12.478Z,25.25
2022-08-17T18:15:29.487Z,25.12
2022-08-17T18:18:44.071Z,25.05
2022-08-17T18:21:54.511Z,24.94
2022-08-17T18:24:59.609Z,25.01
2022-08-17T18:28:05.241Z,25.03
2022-08-17T18:31:18.223Z,24.78
2022-08-17T18:34:46.589Z,24.78
2022-08-17T18:37:55.421Z,24.71
2022-08-17T18:41:06.250Z,24.69
2022-08-17T18:44:26.121Z,24.46
2022-08-17T18:47:31.358Z,24.47
2022-08-17T18:50:41.339Z,24.55
2022-08-17T18:53:46.457Z,24.59
2022-08-17T18:56:56.437Z,24.62
2022-08-17T19:00:02.001Z,24.39
2022-08-17T19:03:24.689Z,24.42
2022-08-17T19:06:35.092Z,24.42
2022-08-17T19:09:45.099Z,24.37
2022-08-17T19:13:00.456Z,24.29
2022-08-17T19:16:14.601Z,24.32
2022-08-17T19:19:24.427Z,24.25
2022-08-17T19:22:43.821Z,24.19
2022-08-17T19:25:52.478Z,24.06
2022-08-17T19:29:01.542Z,24.14
2022-08-17T19:32:08.895Z,24.07
2022-08-17T19:35:17.567Z,24.11
2022-08-17T19:38:36.102Z,24.12
2022-08-17T19:41:51.199Z,24.13
2022-08-17T19:45:03.987Z,24.13
2022-08-17T19:48:21.817Z,24.09
2022-08-17T19:51:35.322Z,24.02
2022-08-17T19:54:52.368Z,23.99
2022-08-17T19:58:06.307Z,24.00
2022-08-17T20:01:19.233Z,23.73
2022-08-17T20:04:36.680Z,23.85
2022-08-17T20:07:48.588Z,23.87
2022-08-17T20:10:58.951Z,23.82
2022-08-17T20:14:08.535Z,23.81
2022-08-17T20:17:14.525Z,23.84
2022-08-17T20:20:30.319Z,23.78
2022-08-17T20:23:51.167Z,23.74
2022-08-17T20:27:00.268Z,23.72
2022-08-17T20:30:12.271Z,23.73
2022-08-17T20:33:28.630Z,23.71
2022-08-17T20:36:37.001Z,23.70
2022-08-17T20:39:45.680Z,23.64
2022-08-17T20:42:52.696Z,23.52
2022-08-17T20:46:14.274Z,23.52
2022-08-17T20:49:28.258Z,23.46
2022-08-17T20:52:53.242Z,23.44
2022-08-17T20:55:58.908Z,23.41
2022-08-17T20:59:05.478Z,23.38
2022-08-17T21:02:14.020Z,23.38
2022-08-17T21:05:32.373Z,23.25
2022-08-17T21:08:45.880Z,23.28
2022-08-17T21:12:04.556Z,23.28
2022-08-17T21:15:31.056Z,23.30
2022-08-17T21:18:45.690Z,23.24
2022-08-17T21:22:04.870Z,23.26
2022-08-17T21:25:24.561Z,23.31
2022-08-17T21:28:37.232Z,23.27
2022-08-17T21:32:24.728Z,23.10
2022-08-17T21:35:48.971Z,23.10
2022-08-17T21:39:04.509Z,23.07
2022-08-17T21:42:11.261Z,23.09
2022-08-17T21:45:23.922Z,23.13
2022-08-17T21:48:33.278Z,23.19
2022-08-17T21:51:44.835Z,23.18
2022-08-17T21:54:52.862Z,23.22
2022-08-17T21:58:13.736Z,23.15
2022-08-17T22:01:26.833Z,23.10
2022-08-17T22:04:36.398Z,23.11
2022-08-17T22:07:45.351Z,23.06
2022-08-17T22:10:55.522Z,23.07
2022-08-17T22:14:05.943Z,23.06
2022-08-17T22:17:20.103Z,23.04
2022-08-17T22:20:26.741Z,23.01
2022-08-17T22:23:52.967Z,22.92
2022-08-17T22:27:11.105Z,22.90
2022-08-17T22:30:34.483Z,22.85
2022-08-17T22:33:45.620Z,22.82
2022-08-17T22:37:27.537Z,22.83
2022-08-17T22:40:34.892Z,22.72
2022-08-17T22:43:43.657Z,22.78
2022-08-17T22:47:01.972Z,22.81
2022-08-17T22:50:19.191Z,22.78
2022-08-17T22:53:42.986Z,22.76
2022-08-17T22:57:18.934Z,22.66
2022-08-17T23:00:39.253Z,22.69
2022-08-17T23:03:54.600Z,22.64
2022-08-17T23:07:00.221Z,22.58
2022-08-17T23:10:08.255Z,22.47
2022-08-17T23:13:14.330Z,22.52
2022-08-17T23:16:21.090Z,22.52
2022-08-17T23:19:28.322Z,22.45
2022-08-17T23:22:34.109Z,22.40
2022-08-17T23:25:44.475Z,22.35
2022-08-17T23:28:50.270Z,22.29
2022-08-17T23:31:57.805Z,22.31
2022-08-17T23:35:02.891Z,22.33
2022-08-17T23:38:08.101Z,22.31
2022-08-17T23:41:18.145Z,22.29
2022-08-17T23:44:24.461Z,22.28
2022-08-17T23:47:29.768Z,22.24
2022-08-17T23:50:35.183Z,22.16
2022-08-17T23:53:48.687Z,22.12
2022-08-17T23:56:55.296Z,22.03
